메인 페이지
METAR-TAF:

METAR-TAF

공항 :

Hurlburt Field

Mary Esther, 플로리다, 미국

위도: 30-25N, 경도: 086-41W, 고도: 12m

현재 날씨관측

예보는 20분 전, 08:55시(UTC)에 발표되었습니다.
3kt
온도 25°C
습도 89%
기압 1016 hPa
시정: 16.1km
고도 20000ft 상공 구름 조금
고도 22000ft 상공 흐림

METAR: KHRT 170855Z 08003KT 10SM FEW200 OVC220 25/23 A3000 RMK AO2A SLP157 T02470225 55008 $

시각: 04:15 (09:15 UTC)

예보

예보는 15 시간 15분 전, 18:00시(UTC)에 발표되었습니다.
예보 대상 시간: 16일 18시부터 17일 24시까지 (UTC)
남남동9kt
시정 10km 이상
고도 2000ft 상공 구름 조금, 적란운.
고도 4000ft 상공 구름 보통
고도 12000ft 상공 구름 많음
시계 내 뇌우
일시적
16일 18시부터 16일 21시까지 (UTC)
12kt, 순간 최대 풍속 18kt
시정: 8000m
고도 2000ft 상공 구름 많음, 적란운.
뇌우, 비
전환 중
16일 21시부터 16일 22시까지 (UTC)
남동9kt
시정 10km 이상
고도 3000ft 상공 구름 보통
고도 5000ft 상공 구름 많음
전환 중
17일 10시부터 17일 11시까지 (UTC)
9kt
시정 10km 이상
고도 2000ft 상공 구름 많음
전환 중
17일 14시부터 17일 15시까지 (UTC)
12kt, 순간 최대 풍속 18kt
시정 10km 이상
고도 3000ft 상공 구름 많음
고도 6000ft 상공 구름 많음

TAF: KHRT 161800Z 1618/1724 16009KT 9999 VCTS FEW020CB SCT040 BKN120 QNH2998INS TEMPO 1618/1621 17012G18KT 8000 TSRA BKN020CB BECMG 1621/1622 13009KT 9999 NSW SCT030 BKN050 QNH2998INS BECMG 1710/1711 08009KT 9999 BKN020 QNH3001INS BECMG 1714/1715 09012G18KT 9999 BKN030 BKN060 QNH2999INS TX30/1618Z TN25/1710Z

4,000개 이상의 공항 관측 자료 및 예보 (METAR 및 TAF 보고).

지도상에서 검색 가능한 기상관측소가 노란 점과 빨간 점으로 표시되어 있습니다.

기상관측소 명을 보려면 표시 위로 마우스를 이동하세요.

날씨 관측과 예보를 보려면 클릭하세요.

지도 변경 : 확대하려면 엑스 표시가 있는 녹색 버튼, 축소하려면 빼기 표시가 있는 녹색 버튼, 다음 페이지의 지도를 보려면 녹색 화살표를 클릭하세요.


METAR-TAF: